sensor_id;sensor_type;location;lat;lon;timestamp;temperature;humidity
1896;DHT22;1455;51.440;7.308;2024-02-15T12:04:07;15.20;99.90
1896;DHT22;1455;51.440;7.308;2024-02-15T12:07:11;15.30;99.90
1896;DHT22;1455;51.440;7.308;2024-02-15T12:10:17;15.40;99.90
1896;DHT22;1455;51.440;7.308;2024-02-15T12:13:21;15.30;99.90
1896;DHT22;1455;51.440;7.308;2024-02-15T12:16:24;15.40;99.90
1896;DHT22;1455;51.440;7.308;2024-02-15T12:19:29;15.40;99.90
1896;DHT22;1455;51.440;7.308;2024-02-15T12:22:15;15.50;99.90
1896;DHT22;1455;51.440;7.308;2024-02-15T12:25:02;15.50;99.90
1896;DHT22;1455;51.440;7.308;2024-02-15T12:27:53;15.60;99.90
1896;DHT22;1455;51.440;7.308;2024-02-15T12:30:39;15.60;99.90
1896;DHT22;1455;51.440;7.308;2024-02-15T12:33:25;15.70;99.90
1896;DHT22;1455;51.440;7.308;2024-02-15T12:36:16;16.00;99.90
1896;DHT22;1455;51.440;7.308;2024-02-15T12:39:24;16.20;99.90
1896;DHT22;1455;51.440;7.308;2024-02-15T12:42:12;16.30;99.90
1896;DHT22;1455;51.440;7.308;2024-02-15T12:44:58;16.30;99.90
1896;DHT22;1455;51.440;7.308;2024-02-15T12:47:46;16.30;99.90
1896;DHT22;1455;51.440;7.308;2024-02-15T12:50:34;16.40;99.90
1896;DHT22;1455;51.440;7.308;2024-02-15T12:53:24;16.40;99.90
1896;DHT22;1455;51.440;7.308;2024-02-15T12:56:20;16.60;99.90
1896;DHT22;1455;51.440;7.308;2024-02-15T12:59:08;16.70;99.90
1896;DHT22;1455;51.440;7.308;2024-02-15T13:01:54;16.60;99.90
1896;DHT22;1455;51.440;7.308;2024-02-15T13:04:40;16.80;99.90
1896;DHT22;1455;51.440;7.308;2024-02-15T13:07:25;17.00;99.90
1896;DHT22;1455;51.440;7.308;2024-02-15T13:10:24;17.00;99.90
1896;DHT22;1455;51.440;7.308;2024-02-15T13:13:11;17.20;99.90
1896;DHT22;1455;51.440;7.308;2024-02-15T13:16:08;17.10;99.90
1896;DHT22;1455;51.440;7.308;2024-02-15T13:18:54;17.10;99.90
1896;DHT22;1455;51.440;7.308;2024-02-15T13:21:40;17.10;99.90
1896;DHT22;1455;51.440;7.308;2024-02-15T13:24:26;17.10;99.90
1896;DHT22;1455;51.440;7.308;2024-02-15T13:27:13;17.30;99.90
1896;DHT22;1455;51.440;7.308;2024-02-15T13:29:59;17.30;99.90
1896;DHT22;1455;51.440;7.308;2024-02-15T13:32:44;17.10;99.90
1896;DHT22;1455;51.440;7.308;2024-02-15T13:35:30;17.10;99.90
1896;DHT22;1455;51.440;7.308;2024-02-15T13:38:16;17.30;99.90
1896;DHT22;1455;51.440;7.308;2024-02-15T13:41:06;17.40;99.90
1896;DHT22;1455;51.440;7.308;2024-02-15T13:43:55;17.30;99.90
1896;DHT22;1455;51.440;7.308;2024-02-15T13:46:40;17.00;99.90
1896;DHT22;1455;51.440;7.308;2024-02-15T13:49:26;17.00;99.90
1896;DHT22;1455;51.440;7.308;2024-02-15T13:52:14;17.00;99.90
1896;DHT22;1455;51.440;7.308;2024-02-15T13:55:01;17.00;99.90
1896;DHT22;1455;51.440;7.308;2024-02-15T13:57:48;17.10;99.90
1896;DHT22;1455;51.440;7.308;2024-02-15T14:00:35;17.10;99.90
1896;DHT22;1455;51.440;7.308;2024-02-15T14:03:21;17.20;99.90
1896;DHT22;1455;51.440;7.308;2024-02-15T14:06:07;17.10;99.90
1896;DHT22;1455;51.440;7.308;2024-02-15T14:08:54;17.10;99.90
1896;DHT22;1455;51.440;7.308;2024-02-15T14:11:40;17.20;99.90
1896;DHT22;1455;51.440;7.308;2024-02-15T14:14:27;17.20;99.90
1896;DHT22;1455;51.440;7.308;2024-02-15T14:17:15;17.20;99.90
1896;DHT22;1455;51.440;7.308;2024-02-15T14:20:01;17.00;99.90
1896;DHT22;1455;51.440;7.308;2024-02-15T14:22:49;16.90;99.90
1896;DHT22;1455;51.440;7.308;2024-02-15T14:25:39;17.00;99.90
1896;DHT22;1455;51.440;7.308;2024-02-15T14:28:25;16.80;99.90
1896;DHT22;1455;51.440;7.308;2024-02-15T14:31:11;16.90;99.90
1896;DHT22;1455;51.440;7.308;2024-02-15T14:34:16;16.70;99.90
1896;DHT22;1455;51.440;7.308;2024-02-15T14:37:05;16.70;99.90
1896;DHT22;1455;51.440;7.308;2024-02-15T14:39:50;16.80;99.90
1896;DHT22;1455;51.440;7.308;2024-02-15T14:42:36;16.80;99.90
1896;DHT22;1455;51.440;7.308;2024-02-15T14:45:23;16.70;99.90
1896;DHT22;1455;51.440;7.308;2024-02-15T14:48:09;16.60;99.90
1896;DHT22;1455;51.440;7.308;2024-02-15T14:50:56;16.50;99.90
